Time;durP1;ratioP1;P1;durP2;ratioP2;P2;SDS_P1;SDS_P2;PMS_P1;PMS_P2;Temp;Humidity;BMP_temperature;BMP_pressure;BME280_temperature;BME280_humidity;BME280_pressure;Samples;Min_cycle;Max_cycle;Signal;HPM_P1;HPM_P2
2022/06/04 00:04:33;;;;;;;7.93;3.67;;;16.20;99.90;;;;;;20841595;28;20103;-76
2022/06/04 00:24:59;;;;;;;6.68;3.53;;;16.10;99.90;;;;;;20812926;28;20557;-78
2022/06/04 00:35:06;;;;;;;7.43;3.70;;;16.00;99.90;;;;;;20830679;28;20025;-76
2022/06/04 00:45:21;;;;;;;8.20;3.70;;;15.90;99.90;;;;;;20829867;28;20040;-76
2022/06/04 00:55:23;;;;;;;8.40;3.17;;;15.80;99.90;;;;;;20827979;28;20080;-77
2022/06/04 01:05:41;;;;;;;6.22;3.90;;;15.80;99.90;;;;;;20828291;28;20036;-78
2022/06/04 01:15:49;;;;;;;7.32;5.32;;;15.70;99.90;;;;;;20826924;28;20496;-77
2022/06/04 01:26:27;;;;;;;8.23;5.47;;;15.70;99.90;;;;;;20829372;28;20392;-75
2022/06/04 01:36:34;;;;;;;6.88;4.20;;;15.60;99.90;;;;;;20826905;28;20407;-77
2022/06/04 01:46:45;;;;;;;11.32;4.65;;;15.40;99.90;;;;;;20826940;28;20041;-76
2022/06/04 01:56:50;;;;;;;5.70;4.90;;;15.30;99.90;;;;;;20837194;28;20029;-76
2022/06/04 02:17:23;;;;;;;13.07;6.38;;;15.80;99.90;;;;;;20824661;28;20037;-77
2022/06/04 02:27:24;;;;;;;5.40;3.33;;;16.00;99.90;;;;;;20829492;28;20091;-77
2022/06/04 02:37:33;;;;;;;12.97;6.17;;;16.20;99.90;;;;;;20821444;23;20567;-73
2022/06/04 02:47:42;;;;;;;9.20;4.72;;;15.90;99.90;;;;;;20757019;28;20116;-73
2022/06/04 02:57:46;;;;;;;7.63;5.07;;;15.70;99.90;;;;;;20771615;28;20036;-73
2022/06/04 03:07:49;;;;;;;7.53;4.80;;;15.60;99.90;;;;;;20754351;28;20030;-74
2022/06/04 03:17:50;;;;;;;7.75;4.70;;;15.60;99.90;;;;;;20754872;28;20038;-73
2022/06/04 03:27:51;;;;;;;12.63;5.20;;;15.60;99.90;;;;;;20753993;28;20030;-73
2022/06/04 03:37:53;;;;;;;12.23;5.63;;;15.20;99.90;;;;;;20752242;28;20280;-73
2022/06/04 03:47:55;;;;;;;7.03;4.30;;;15.10;99.90;;;;;;20751272;28;20041;-73
2022/06/04 03:57:56;;;;;;;13.65;5.60;;;15.30;99.90;;;;;;20751700;28;20029;-73
2022/06/04 04:07:58;;;;;;;10.27;5.27;;;15.80;99.90;;;;;;20749701;28;20064;-73
2022/06/04 04:17:59;;;;;;;8.93;5.13;;;16.20;99.90;;;;;;20749340;28;20034;-73
2022/06/04 04:28:01;;;;;;;6.20;3.93;;;16.40;99.90;;;;;;20748211;28;20416;-73
2022/06/04 04:38:02;;;;;;;;;;;16.30;99.90;;;;;;20749001;28;20087;-73
2022/06/04 04:48:03;;;;;;;8.48;3.90;;;16.40;99.90;;;;;;20747777;28;20299;-73
2022/06/04 04:58:05;;;;;;;9.07;3.63;;;16.40;99.90;;;;;;20747295;28;20504;-73
2022/06/04 05:08:06;;;;;;;8.20;3.75;;;16.00;99.90;;;;;;20746325;28;20041;-73
2022/06/04 05:18:07;;;;;;;6.80;2.33;;;16.20;99.90;;;;;;20745813;28;20476;-73
2022/06/04 05:28:08;;;;;;;6.43;3.20;;;16.10;99.90;;;;;;20745045;28;20030;-73
2022/06/04 05:38:08;;;;;;;8.87;2.70;;;16.20;99.90;;;;;;20744582;28;20469;-73
2022/06/04 05:48:09;;;;;;;8.33;2.87;;;16.30;99.90;;;;;;20751513;28;20026;-73
2022/06/04 05:58:10;;;;;;;5.57;3.60;;;16.40;99.90;;;;;;20743637;28;20041;-73
2022/06/04 06:08:12;;;;;;;4.37;2.87;;;16.50;99.90;;;;;;20768443;28;20034;-73
2022/06/04 06:18:13;;;;;;;5.38;2.60;;;16.80;99.90;;;;;;20769879;28;20109;-74
2022/06/04 06:28:14;;;;;;;4.03;1.90;;;16.90;99.90;;;;;;20769776;28;20095;-74
2022/06/04 06:38:14;;;;;;;6.00;2.60;;;17.10;99.90;;;;;;20769044;28;20558;-74
2022/06/04 06:48:15;;;;;;;5.80;2.07;;;17.20;99.90;;;;;;20768936;28;20033;-73
2022/06/04 06:58:16;;;;;;;4.87;2.50;;;17.70;99.90;;;;;;20750824;28;20037;-74
2022/06/04 07:08:17;;;;;;;3.70;1.63;;;18.90;99.90;;;;;;20768057;28;20033;-75
2022/06/04 07:18:19;;;;;;;4.87;2.03;;;19.30;99.90;;;;;;20742999;28;20041;-74
2022/06/04 07:28:20;;;;;;;5.05;1.80;;;20.00;99.90;;;;;;20805005;28;20029;-74
2022/06/04 07:38:21;;;;;;;7.57;2.13;;;20.10;99.90;;;;;;20835081;28;20056;-75
2022/06/04 07:48:21;;;;;;;4.53;2.00;;;20.60;99.90;;;;;;20812483;28;20023;-74
2022/06/04 07:58:22;;;;;;;3.43;2.47;;;20.40;99.90;;;;;;20825744;28;20029;-75
2022/06/04 08:08:23;;;;;;;8.55;2.10;;;20.40;99.90;;;;;;20816513;28;20029;-74
2022/06/04 08:18:25;;;;;;;4.73;2.20;;;21.10;99.90;;;;;;20832080;28;20053;-74
2022/06/04 08:28:26;;;;;;;6.97;2.50;;;22.50;99.90;;;;;;20830793;28;20029;-74
2022/06/04 08:38:27;;;;;;;10.15;4.18;;;22.90;99.90;;;;;;20857922;23;20407;-75
2022/06/04 08:48:35;;;;;;;64.03;15.27;;;23.70;99.90;;;;;;20829667;28;20036;-77
2022/06/04 08:59:04;;;;;;;17.35;6.63;;;24.40;99.90;;;;;;20828882;28;20371;-76
2022/06/04 09:09:13;;;;;;;3.40;1.75;;;24.60;99.90;;;;;;20826963;28;20037;-77
2022/06/04 09:19:17;;;;;;;5.88;1.40;;;24.50;99.90;;;;;;20827124;28;20032;-76
2022/06/04 09:29:27;;;;;;;2.60;1.30;;;25.00;99.90;;;;;;20828120;28;20435;-77
2022/06/04 09:39:31;;;;;;;11.43;5.23;;;25.70;99.90;;;;;;20834558;28;20053;-77
2022/06/04 09:49:34;;;;;;;4.10;1.60;;;26.20;99.90;;;;;;20819547;28;20602;-75
2022/06/04 09:59:35;;;;;;;1.92;0.80;;;26.80;99.90;;;;;;20828009;28;20037;-76
2022/06/04 10:09:57;;;;;;;3.17;2.03;;;27.30;99.90;;;;;;20859311;28;20040;-76
2022/06/04 10:19:58;;;;;;;2.67;0.90;;;26.70;99.90;;;;;;20854387;28;20030;-77
2022/06/04 10:30:16;;;;;;;3.13;1.20;;;28.00;99.90;;;;;;20805052;28;20038;-75
2022/06/04 10:40:33;;;;;;;10.60;2.20;;;28.10;99.90;;;;;;20804219;28;20064;-77
2022/06/04 11:01:31;;;;;;;3.13;0.68;;;28.90;99.90;;;;;;20813458;28;20032;-77
2022/06/04 11:11:41;;;;;;;6.68;1.35;;;29.90;99.90;;;;;;20817235;28;20045;-77
2022/06/04 11:22:10;;;;;;;3.47;0.90;;;29.30;99.90;;;;;;20815848;28;20029;-75
2022/06/04 11:32:18;;;;;;;3.83;1.55;;;27.90;99.90;;;;;;20817810;28;20037;-76
2022/06/04 11:42:43;;;;;;;2.60;0.90;;;29.00;99.90;;;;;;20828094;28;20034;-76
2022/06/04 11:52:52;;;;;;;2.67;0.95;;;29.40;99.90;;;;;;20870492;28;20040;-77
2022/06/04 12:03:04;;;;;;;2.75;1.33;;;30.20;99.90;;;;;;20842576;28;20168;-76
2022/06/04 12:13:23;;;;;;;6.22;1.23;;;29.50;99.90;;;;;;20830915;28;20045;-76
2022/06/04 12:33:51;;;;;;;9.23;1.60;;;29.80;99.90;;;;;;20829070;28;20033;-76
2022/06/04 12:44:01;;;;;;;7.45;1.65;;;29.10;99.90;;;;;;20826331;28;20021;-76
2022/06/04 12:54:25;;;;;;;7.60;1.83;;;29.00;99.90;;;;;;20827861;28;20025;-76
2022/06/04 13:04:36;;;;;;;10.32;2.88;;;29.10;99.90;;;;;;20816288;28;20411;-76
2022/06/04 13:14:37;;;;;;;13.80;1.73;;;29.00;99.90;;;;;;20837814;28;20029;-77
2022/06/04 13:24:38;;;;;;;19.20;3.35;;;29.70;99.90;;;;;;20827371;28;20033;-76
2022/06/04 13:34:40;;;;;;;8.35;2.00;;;30.00;99.90;;;;;;20827943;28;20557;-75
2022/06/04 13:44:51;;;;;;;12.57;2.35;;;29.40;99.90;;;;;;20828255;28;20083;-76
2022/06/04 13:55:00;;;;;;;11.80;2.40;;;29.50;99.90;;;;;;20825785;28;20041;-75
2022/06/04 14:15:44;;;;;;;7.30;1.67;;;29.40;99.90;;;;;;20824687;28;20030;-74
2022/06/04 14:26:05;;;;;;;10.70;1.90;;;29.90;99.90;;;;;;20834027;28;20029;-74
2022/06/04 14:36:16;;;;;;;9.68;2.17;;;30.30;99.90;;;;;;20858338;22;20034;-75
2022/06/04 14:46:35;;;;;;;11.40;2.25;;;29.90;99.90;;;;;;20915331;28;20499;-75
2022/06/04 14:56:57;;;;;;;7.82;1.80;;;30.00;99.90;;;;;;20919897;28;20479;-73
2022/06/04 15:07:12;;;;;;;14.10;2.20;;;30.20;99.90;;;;;;20861245;28;20075;-73
2022/06/04 15:17:31;;;;;;;57.13;4.38;;;30.00;99.90;;;;;;20837278;28;20095;-73
2022/06/04 15:27:55;;;;;;;11.95;1.85;;;29.00;99.90;;;;;;20836435;28;20036;-73
2022/06/04 15:38:21;;;;;;;7.82;1.65;;;28.90;99.90;;;;;;20834473;28;20083;-73
2022/06/04 15:48:27;;;;;;;11.50;1.73;;;28.50;99.90;;;;;;20778777;28;20044;-73
2022/06/04 15:58:42;;;;;;;9.48;1.90;;;28.10;99.90;;;;;;20870270;28;20065;-73
2022/06/04 16:09:11;;;;;;;11.35;2.15;;;27.40;99.90;;;;;;20829998;28;20071;-74
2022/06/04 16:19:24;;;;;;;304.63;19.13;;;27.60;99.90;;;;;;20832540;28;20544;-72
2022/06/04 16:29:36;;;;;;;7.25;2.00;;;27.80;99.90;;;;;;20833949;28;20392;-75
2022/06/04 16:39:47;;;;;;;14.45;2.88;;;27.60;99.90;;;;;;20830621;28;20025;-76
2022/06/04 16:49:49;;;;;;;10.93;1.87;;;27.70;99.90;;;;;;20829652;28;20629;-78
2022/06/04 16:59:50;;;;;;;8.65;2.08;;;27.70;99.90;;;;;;20827985;28;20288;-77
2022/06/04 17:09:58;;;;;;;9.15;1.73;;;27.80;99.90;;;;;;20828509;28;20131;-77
2022/06/04 17:20:17;;;;;;;13.95;2.13;;;27.80;99.90;;;;;;20828494;28;20063;-77
2022/06/04 17:30:22;;;;;;;15.55;2.10;;;27.90;99.90;;;;;;20827325;28;20034;-77
2022/06/04 17:40:27;;;;;;;8.27;1.92;;;27.40;99.90;;;;;;20826853;28;20033;-77
2022/06/04 17:50:28;;;;;;;13.18;2.10;;;27.00;99.90;;;;;;20833319;28;20029;-76
2022/06/04 18:00:31;;;;;;;6.28;1.65;;;26.50;99.90;;;;;;20824629;28;20036;-77
2022/06/04 18:10:33;;;;;;;9.73;2.13;;;26.30;99.90;;;;;;20823852;28;20075;-77
2022/06/04 18:20:35;;;;;;;10.25;1.95;;;25.80;99.90;;;;;;20824752;28;20499;-77
2022/06/04 18:30:47;;;;;;;7.78;2.20;;;25.40;99.90;;;;;;20822994;28;20083;-77
2022/06/04 18:40:47;;;;;;;12.90;2.40;;;24.90;99.90;;;;;;20823973;28;20044;-77
2022/06/04 19:01:08;;;;;;;9.05;3.00;;;23.80;99.90;;;;;;20821767;28;19909;-76
2022/06/04 19:31:49;;;;;;;6.07;1.90;;;23.30;99.90;;;;;;20836269;28;20057;-76
2022/06/04 19:41:51;;;;;;;12.83;3.37;;;22.90;99.90;;;;;;20835401;28;20087;-76
2022/06/04 19:51:52;;;;;;;10.57;3.17;;;22.60;99.90;;;;;;20833446;28;20030;-76
2022/06/04 20:01:53;;;;;;;8.80;2.05;;;22.50;99.90;;;;;;20833884;28;20033;-76
2022/06/04 20:11:53;;;;;;;9.60;2.55;;;22.70;99.90;;;;;;20832890;28;20029;-76
2022/06/04 20:21:54;;;;;;;8.20;2.60;;;22.60;99.90;;;;;;20831595;28;20040;-76
2022/06/04 20:31:55;;;;;;;24.50;3.33;;;22.60;99.90;;;;;;20831351;28;20036;-76
2022/06/04 20:41:56;;;;;;;3.50;2.13;;;22.60;99.90;;;;;;20872644;23;20049;-78
2022/06/04 20:51:57;;;;;;;5.55;2.80;;;22.40;99.90;;;;;;20828339;28;20411;-78
2022/06/04 21:01:58;;;;;;;6.57;2.67;;;22.30;99.90;;;;;;20843676;28;20056;-78
2022/06/04 21:12:01;;;;;;;5.43;3.17;;;22.20;99.90;;;;;;20842225;28;20032;-78
2022/06/04 21:22:02;;;;;;;5.43;2.50;;;22.10;99.90;;;;;;20828467;28;20495;-77
2022/06/04 21:32:04;;;;;;;4.50;2.50;;;22.10;99.90;;;;;;20841405;28;20039;-78
2022/06/04 21:42:05;;;;;;;11.57;3.00;;;22.00;99.90;;;;;;20842206;28;20064;-77
2022/06/04 21:52:07;;;;;;;;;;;21.80;99.90;;;;;;20825098;28;20040;-78
2022/06/04 22:02:08;;;;;;;5.60;2.72;;;21.80;99.90;;;;;;20844949;28;19962;-78
2022/06/04 22:12:10;;;;;;;4.37;2.83;;;21.60;99.90;;;;;;20848860;28;20030;-78
2022/06/04 22:22:15;;;;;;;4.47;3.25;;;21.40;99.90;;;;;;20840822;28;20454;-77
2022/06/04 22:32:16;;;;;;;6.15;3.10;;;21.30;99.90;;;;;;20825089;28;20033;-77
2022/06/04 22:42:17;;;;;;;9.35;2.65;;;21.20;99.90;;;;;;20837298;28;20044;-77
2022/06/04 22:52:18;;;;;;;5.93;2.60;;;21.30;99.90;;;;;;20835039;28;20095;-77
2022/06/04 23:02:19;;;;;;;4.03;2.67;;;21.30;99.90;;;;;;20848782;28;20067;-78
2022/06/04 23:23:05;;;;;;;5.28;2.40;;;21.10;99.90;;;;;;20847619;28;20117;-78
2022/06/04 23:33:06;;;;;;;6.88;2.92;;;21.00;99.90;;;;;;20850693;28;20030;-78
2022/06/04 23:43:07;;;;;;;;;;;21.00;99.90;;;;;;20855840;28;20037;-78
2022/06/04 23:53:10;;;;;;;5.40;3.00;;;20.80;99.90;;;;;;20856990;28;19924;-78
